sensor_id;sensor_type;location;lat;lon;timestamp;pressure;altitude;pressure_sealevel;temperature;humidity
70229;BME280;57617;51.988;5.854;2023-08-31T00:02:16;100332.69;;;16.93;62.46
70229;BME280;57617;51.988;5.854;2023-08-31T00:04:41;100324.75;;;16.91;62.69
70229;BME280;57617;51.988;5.854;2023-08-31T00:07:06;100332.19;;;16.91;62.79
70229;BME280;57617;51.988;5.854;2023-08-31T00:09:32;100327.28;;;16.88;62.91
70229;BME280;57617;51.988;5.854;2023-08-31T00:11:57;100329.44;;;16.91;62.78
70229;BME280;57617;51.988;5.854;2023-08-31T00:14:24;100328.31;;;16.92;63.05
70229;BME280;57617;51.988;5.854;2023-08-31T00:16:49;100320.91;;;16.92;63.12
70229;BME280;57617;51.988;5.854;2023-08-31T00:19:15;100317.34;;;16.92;62.74
70229;BME280;57617;51.988;5.854;2023-08-31T00:21:41;100315.44;;;16.92;62.77
70229;BME280;57617;51.988;5.854;2023-08-31T00:24:06;100319.59;;;16.90;62.70
70229;BME280;57617;51.988;5.854;2023-08-31T00:26:34;100299.38;;;16.81;62.59
70229;BME280;57617;51.988;5.854;2023-08-31T00:29:00;100302.41;;;16.79;62.58
70229;BME280;57617;51.988;5.854;2023-08-31T00:31:25;100302.19;;;16.76;62.32
70229;BME280;57617;51.988;5.854;2023-08-31T00:33:52;100304.41;;;16.74;62.44
70229;BME280;57617;51.988;5.854;2023-08-31T00:36:18;100308.25;;;16.73;62.46
70229;BME280;57617;51.988;5.854;2023-08-31T00:38:43;100300.09;;;16.68;62.48
70229;BME280;57617;51.988;5.854;2023-08-31T00:41:08;100306.97;;;16.65;62.55
70229;BME280;57617;51.988;5.854;2023-08-31T00:43:34;100305.94;;;16.62;63.06
70229;BME280;57617;51.988;5.854;2023-08-31T00:45:59;100310.38;;;16.58;63.15
70229;BME280;57617;51.988;5.854;2023-08-31T00:48:25;100314.25;;;16.57;63.23
70229;BME280;57617;51.988;5.854;2023-08-31T00:50:50;100308.81;;;16.52;63.48
70229;BME280;57617;51.988;5.854;2023-08-31T00:53:17;100311.28;;;16.48;63.53
70229;BME280;57617;51.988;5.854;2023-08-31T00:55:44;100312.13;;;16.48;63.62
70229;BME280;57617;51.988;5.854;2023-08-31T00:58:10;100306.69;;;16.43;63.75
70229;BME280;57617;51.988;5.854;2023-08-31T01:03:24;100310.50;;;16.48;63.93
70229;BME280;57617;51.988;5.854;2023-08-31T01:06:01;100308.28;;;16.49;63.96
70229;BME280;57617;51.988;5.854;2023-08-31T01:09:18;100312.63;;;16.50;64.41
70229;BME280;57617;51.988;5.854;2023-08-31T01:12:03;100308.28;;;16.49;64.18
70229;BME280;57617;51.988;5.854;2023-08-31T01:14:38;100323.09;;;16.48;64.12
70229;BME280;57617;51.988;5.854;2023-08-31T01:17:08;100316.06;;;16.37;63.92
70229;BME280;57617;51.988;5.854;2023-08-31T01:19:45;100322.03;;;16.44;64.54
70229;BME280;57617;51.988;5.854;2023-08-31T01:22:30;100319.00;;;16.46;65.01
70229;BME280;57617;51.988;5.854;2023-08-31T01:24:56;100321.22;;;16.44;64.40
70229;BME280;57617;51.988;5.854;2023-08-31T01:27:22;100329.16;;;16.45;64.53
70229;BME280;57617;51.988;5.854;2023-08-31T01:29:48;100320.97;;;16.40;64.58
70229;BME280;57617;51.988;5.854;2023-08-31T01:32:13;100326.44;;;16.40;64.76
70229;BME280;57617;51.988;5.854;2023-08-31T01:34:39;100325.88;;;16.43;64.89
70229;BME280;57617;51.988;5.854;2023-08-31T01:37:11;100325.59;;;16.45;65.39
70229;BME280;57617;51.988;5.854;2023-08-31T01:39:48;100321.19;;;16.49;65.28
70229;BME280;57617;51.988;5.854;2023-08-31T01:42:15;100317.84;;;16.52;65.13
70229;BME280;57617;51.988;5.854;2023-08-31T01:44:42;100316.72;;;16.53;65.00
70229;BME280;57617;51.988;5.854;2023-08-31T01:47:10;100313.25;;;16.48;65.20
70229;BME280;57617;51.988;5.854;2023-08-31T01:49:39;100317.03;;;16.52;65.49
70229;BME280;57617;51.988;5.854;2023-08-31T01:52:05;100317.56;;;16.53;65.19
70229;BME280;57617;51.988;5.854;2023-08-31T01:54:31;100313.69;;;16.54;65.34
70229;BME280;57617;51.988;5.854;2023-08-31T01:56:56;100315.31;;;16.55;65.57
70229;BME280;57617;51.988;5.854;2023-08-31T01:59:22;100322.19;;;16.53;65.55
70229;BME280;57617;51.988;5.854;2023-08-31T02:01:47;100322.19;;;16.53;65.61
70229;BME280;57617;51.988;5.854;2023-08-31T02:04:13;100324.94;;;16.53;65.78
70229;BME280;57617;51.988;5.854;2023-08-31T02:06:38;100325.25;;;16.52;65.50
70229;BME280;57617;51.988;5.854;2023-08-31T02:09:03;100329.84;;;16.56;65.73
70229;BME280;57617;51.988;5.854;2023-08-31T02:11:30;100327.06;;;16.61;65.67
70229;BME280;57617;51.988;5.854;2023-08-31T02:13:56;100330.91;;;16.60;65.84
70229;BME280;57617;51.988;5.854;2023-08-31T02:16:22;100326.78;;;16.63;65.78
70229;BME280;57617;51.988;5.854;2023-08-31T02:18:47;100327.88;;;16.62;66.02
70229;BME280;57617;51.988;5.854;2023-08-31T02:21:13;100325.94;;;16.62;65.91
70229;BME280;57617;51.988;5.854;2023-08-31T02:23:38;100326.22;;;16.60;65.82
70229;BME280;57617;51.988;5.854;2023-08-31T02:26:03;100327.94;;;16.57;66.10
70229;BME280;57617;51.988;5.854;2023-08-31T02:28:29;100324.03;;;16.63;65.90
70229;BME280;57617;51.988;5.854;2023-08-31T02:31:02;100328.47;;;16.58;66.52
70229;BME280;57617;51.988;5.854;2023-08-31T02:33:27;100325.94;;;16.62;66.09
70229;BME280;57617;51.988;5.854;2023-08-31T02:35:54;100327.63;;;16.58;66.17
70229;BME280;57617;51.988;5.854;2023-08-31T02:38:20;100332.25;;;16.63;66.25
70229;BME280;57617;51.988;5.854;2023-08-31T02:40:46;100325.59;;;16.68;66.09
70229;BME280;57617;51.988;5.854;2023-08-31T02:43:11;100321.00;;;16.64;66.17
70229;BME280;57617;51.988;5.854;2023-08-31T02:45:36;100318.53;;;16.63;66.34
70229;BME280;57617;51.988;5.854;2023-08-31T02:48:02;100340.78;;;16.61;66.41
70229;BME280;57617;51.988;5.854;2023-08-31T02:50:28;100342.47;;;16.57;66.28
70229;BME280;57617;51.988;5.854;2023-08-31T02:52:54;100327.41;;;16.54;66.13
70229;BME280;57617;51.988;5.854;2023-08-31T02:55:19;100322.53;;;16.52;66.48
70229;BME280;57617;51.988;5.854;2023-08-31T02:57:46;100339.44;;;16.58;66.31
70229;BME280;57617;51.988;5.854;2023-08-31T03:00:12;100343.50;;;16.61;66.43
70229;BME280;57617;51.988;5.854;2023-08-31T03:02:38;100342.84;;;16.69;66.55
70229;BME280;57617;51.988;5.854;2023-08-31T03:05:04;100343.91;;;16.73;66.60
70229;BME280;57617;51.988;5.854;2023-08-31T03:07:29;100334.28;;;16.75;66.44
70229;BME280;57617;51.988;5.854;2023-08-31T03:09:55;100344.97;;;16.77;66.54
70229;BME280;57617;51.988;5.854;2023-08-31T03:12:20;100348.00;;;16.75;66.74
70229;BME280;57617;51.988;5.854;2023-08-31T03:14:45;100351.28;;;16.77;66.69
70229;BME280;57617;51.988;5.854;2023-08-31T03:17:10;100357.28;;;16.79;66.88
70229;BME280;57617;51.988;5.854;2023-08-31T03:19:36;100355.66;;;16.78;66.71
70229;BME280;57617;51.988;5.854;2023-08-31T03:22:01;100359.25;;;16.74;66.54
70229;BME280;57617;51.988;5.854;2023-08-31T03:24:26;100355.09;;;16.76;66.74
70229;BME280;57617;51.988;5.854;2023-08-31T03:26:52;100351.28;;;16.77;66.57
70229;BME280;57617;51.988;5.854;2023-08-31T03:29:17;100343.06;;;16.77;66.54
70229;BME280;57617;51.988;5.854;2023-08-31T03:31:42;100339.41;;;16.82;66.73
70229;BME280;57617;51.988;5.854;2023-08-31T03:34:08;100335.56;;;16.83;66.50
70229;BME280;57617;51.988;5.854;2023-08-31T03:36:33;100328.44;;;16.82;66.39
70229;BME280;57617;51.988;5.854;2023-08-31T03:38:58;100326.53;;;16.83;66.28
70229;BME280;57617;51.988;5.854;2023-08-31T03:41:24;100328.78;;;16.75;66.01
70229;BME280;57617;51.988;5.854;2023-08-31T03:43:49;100322.50;;;16.75;66.02
70229;BME280;57617;51.988;5.854;2023-08-31T03:46:15;100324.72;;;16.73;66.08
70229;BME280;57617;51.988;5.854;2023-08-31T03:48:40;100323.66;;;16.69;66.10
70229;BME280;57617;51.988;5.854;2023-08-31T03:51:05;100321.81;;;16.64;66.00
70229;BME280;57617;51.988;5.854;2023-08-31T03:53:30;100326.16;;;16.65;66.34
70229;BME280;57617;51.988;5.854;2023-08-31T03:55:56;100320.19;;;16.63;66.33
70229;BME280;57617;51.988;5.854;2023-08-31T03:58:21;100320.69;;;16.65;66.42
70229;BME280;57617;51.988;5.854;2023-08-31T04:00:50;100333.59;;;16.65;66.55
70229;BME280;57617;51.988;5.854;2023-08-31T04:03:15;100333.38;;;16.62;66.40
70229;BME280;57617;51.988;5.854;2023-08-31T04:05:41;100331.72;;;16.60;66.64
70229;BME280;57617;51.988;5.854;2023-08-31T04:08:06;100331.16;;;16.63;66.88
70229;BME280;57617;51.988;5.854;2023-08-31T04:10:31;100329.22;;;16.64;66.82
70229;BME280;57617;51.988;5.854;2023-08-31T04:12:57;100332.78;;;16.64;66.74
70229;BME280;57617;51.988;5.854;2023-08-31T04:15:23;100336.63;;;16.63;66.75
70229;BME280;57617;51.988;5.854;2023-08-31T04:17:48;100341.50;;;16.66;66.86
70229;BME280;57617;51.988;5.854;2023-08-31T04:20:15;100334.94;;;16.67;67.10
70229;BME280;57617;51.988;5.854;2023-08-31T04:22:40;100342.34;;;16.67;67.06
70229;BME280;57617;51.988;5.854;2023-08-31T04:25:06;100345.91;;;16.67;67.04
70229;BME280;57617;51.988;5.854;2023-08-31T04:27:31;100334.13;;;16.67;66.73
70229;BME280;57617;51.988;5.854;2023-08-31T04:29:58;100353.81;;;16.69;67.04
70229;BME280;57617;51.988;5.854;2023-08-31T04:32:24;100349.44;;;16.68;67.25
70229;BME280;57617;51.988;5.854;2023-08-31T04:34:51;100345.09;;;16.67;67.24
70229;BME280;57617;51.988;5.854;2023-08-31T04:37:16;100341.28;;;16.63;67.13
70229;BME280;57617;51.988;5.854;2023-08-31T04:39:41;100354.16;;;16.67;67.21
70229;BME280;57617;51.988;5.854;2023-08-31T04:42:07;100353.53;;;16.70;67.33
70229;BME280;57617;51.988;5.854;2023-08-31T04:44:32;100357.41;;;16.69;67.27
70229;BME280;57617;51.988;5.854;2023-08-31T04:46:57;100357.41;;;16.69;67.59
70229;BME280;57617;51.988;5.854;2023-08-31T04:49:23;100354.94;;;16.68;67.52
70229;BME280;57617;51.988;5.854;2023-08-31T04:51:48;100357.47;;;16.64;67.53
70229;BME280;57617;51.988;5.854;2023-08-31T04:54:13;100367.84;;;16.67;67.87
70229;BME280;57617;51.988;5.854;2023-08-31T04:56:39;100366.97;;;16.72;67.88
70229;BME280;57617;51.988;5.854;2023-08-31T04:59:04;100365.00;;;16.77;67.78
70229;BME280;57617;51.988;5.854;2023-08-31T05:01:30;100363.00;;;16.83;67.60
70229;BME280;57617;51.988;5.854;2023-08-31T05:03:55;100368.47;;;16.83;67.70
70229;BME280;57617;51.988;5.854;2023-08-31T05:06:20;100373.75;;;16.79;67.81
70229;BME280;57617;51.988;5.854;2023-08-31T05:08:49;100380.06;;;16.80;68.22
70229;BME280;57617;51.988;5.854;2023-08-31T05:11:15;100386.88;;;16.83;68.15
70229;BME280;57617;51.988;5.854;2023-08-31T05:13:40;100388.78;;;16.82;68.21
70229;BME280;57617;51.988;5.854;2023-08-31T05:16:08;100390.44;;;16.83;68.22
70229;BME280;57617;51.988;5.854;2023-08-31T05:18:33;100395.34;;;16.86;68.09
70229;BME280;57617;51.988;5.854;2023-08-31T05:20:58;100407.38;;;16.90;68.10
70229;BME280;57617;51.988;5.854;2023-08-31T05:23:24;100413.09;;;16.93;68.21
70229;BME280;57617;51.988;5.854;2023-08-31T05:25:49;100422.44;;;16.92;68.20
70229;BME280;57617;51.988;5.854;2023-08-31T05:28:14;100423.56;;;16.86;68.43
70229;BME280;57617;51.988;5.854;2023-08-31T05:30:54;100425.25;;;16.88;69.26
70229;BME280;57617;51.988;5.854;2023-08-31T05:33:20;100429.38;;;16.85;68.49
70229;BME280;57617;51.988;5.854;2023-08-31T05:35:52;100412.16;;;16.79;68.56
70229;BME280;57617;51.988;5.854;2023-08-31T05:38:17;100425.91;;;16.74;68.79
70229;BME280;57617;51.988;5.854;2023-08-31T05:40:43;100445.88;;;16.80;68.96
70229;BME280;57617;51.988;5.854;2023-08-31T05:43:12;100435.38;;;16.87;68.80
70229;BME280;57617;51.988;5.854;2023-08-31T05:45:37;100433.69;;;16.91;68.60
70229;BME280;57617;51.988;5.854;2023-08-31T05:48:02;100429.31;;;16.90;69.04
70229;BME280;57617;51.988;5.854;2023-08-31T05:50:28;100425.47;;;16.91;68.92
70229;BME280;57617;51.988;5.854;2023-08-31T05:52:54;100425.19;;;16.92;69.01
70229;BME280;57617;51.988;5.854;2023-08-31T05:55:20;100424.19;;;16.83;69.08
70229;BME280;57617;51.988;5.854;2023-08-31T05:57:45;100435.72;;;16.80;69.06
70229;BME280;57617;51.988;5.854;2023-08-31T06:00:11;100435.53;;;16.72;69.27
70229;BME280;57617;51.988;5.854;2023-08-31T06:02:36;100436.94;;;16.69;69.63
70229;BME280;57617;51.988;5.854;2023-08-31T06:05:02;100439.69;;;16.69;69.62
70229;BME280;57617;51.988;5.854;2023-08-31T06:07:28;100442.19;;;16.66;69.51
70229;BME280;57617;51.988;5.854;2023-08-31T06:09:54;100439.97;;;16.68;69.83
70229;BME280;57617;51.988;5.854;2023-08-31T06:12:20;100443.78;;;16.72;69.66
70229;BME280;57617;51.988;5.854;2023-08-31T06:14:45;100447.91;;;16.69;69.75
70229;BME280;57617;51.988;5.854;2023-08-31T06:17:10;100456.91;;;16.75;69.93
70229;BME280;57617;51.988;5.854;2023-08-31T06:19:41;100454.47;;;16.73;69.78
70229;BME280;57617;51.988;5.854;2023-08-31T06:22:06;100460.75;;;16.74;69.73
70229;BME280;57617;51.988;5.854;2023-08-31T06:24:32;100456.38;;;16.73;69.92
70229;BME280;57617;51.988;5.854;2023-08-31T06:26:58;100458.53;;;16.76;69.94
70229;BME280;57617;51.988;5.854;2023-08-31T06:29:23;100456.56;;;16.81;69.86
70229;BME280;57617;51.988;5.854;2023-08-31T06:31:49;100460.94;;;16.83;70.03
70229;BME280;57617;51.988;5.854;2023-08-31T06:34:14;100459.56;;;16.85;70.02
70229;BME280;57617;51.988;5.854;2023-08-31T06:36:39;100459.00;;;16.83;69.85
70229;BME280;57617;51.988;5.854;2023-08-31T06:39:06;100460.34;;;16.85;70.32
70229;BME280;57617;51.988;5.854;2023-08-31T06:41:31;100486.28;;;16.98;70.16
70229;BME280;57617;51.988;5.854;2023-08-31T06:43:57;100485.34;;;17.07;70.27
70229;BME280;57617;51.988;5.854;2023-08-31T06:46:22;100480.97;;;17.06;69.88
70229;BME280;57617;51.988;5.854;2023-08-31T06:48:48;100481.03;;;17.01;70.00
70229;BME280;57617;51.988;5.854;2023-08-31T06:51:14;100486.22;;;17.03;69.97
70229;BME280;57617;51.988;5.854;2023-08-31T06:53:39;100481.03;;;17.01;69.68
70229;BME280;57617;51.988;5.854;2023-08-31T06:56:04;100490.16;;;16.97;70.21
70229;BME280;57617;51.988;5.854;2023-08-31T06:58:30;100483.09;;;16.91;70.09
70229;BME280;57617;51.988;5.854;2023-08-31T07:00:55;100493.50;;;16.89;70.51
70229;BME280;57617;51.988;5.854;2023-08-31T07:03:20;100484.19;;;16.90;70.46
70229;BME280;57617;51.988;5.854;2023-08-31T07:05:46;100495.97;;;16.90;70.43
70229;BME280;57617;51.988;5.854;2023-08-31T07:08:11;100497.59;;;16.91;70.52
70229;BME280;57617;51.988;5.854;2023-08-31T07:10:37;100506.09;;;16.95;70.55
70229;BME280;57617;51.988;5.854;2023-08-31T07:13:03;100507.44;;;16.98;70.74
70229;BME280;57617;51.988;5.854;2023-08-31T07:15:29;100506.03;;;17.00;70.64
70229;BME280;57617;51.988;5.854;2023-08-31T07:17:54;100514.22;;;17.05;70.69
70229;BME280;57617;51.988;5.854;2023-08-31T07:20:19;100513.44;;;16.99;70.39
70229;BME280;57617;51.988;5.854;2023-08-31T07:22:45;100509.88;;;16.99;70.79
70229;BME280;57617;51.988;5.854;2023-08-31T07:25:10;100518.88;;;17.04;70.67
70229;BME280;57617;51.988;5.854;2023-08-31T07:27:35;100512.78;;;17.07;70.66
70229;BME280;57617;51.988;5.854;2023-08-31T07:30:01;100510.66;;;17.04;70.50
70229;BME280;57617;51.988;5.854;2023-08-31T07:32:28;100515.91;;;17.01;70.45
70229;BME280;57617;51.988;5.854;2023-08-31T07:34:53;100513.41;;;17.04;70.69
70229;BME280;57617;51.988;5.854;2023-08-31T07:37:19;100504.03;;;17.05;70.42
70229;BME280;57617;51.988;5.854;2023-08-31T07:39:44;100510.38;;;17.06;70.76
70229;BME280;57617;51.988;5.854;2023-08-31T07:42:09;100515.50;;;17.12;70.60
70229;BME280;57617;51.988;5.854;2023-08-31T07:44:35;100524.50;;;17.18;70.65
70229;BME280;57617;51.988;5.854;2023-08-31T07:47:00;100529.66;;;17.24;70.88
70229;BME280;57617;51.988;5.854;2023-08-31T07:49:27;100531.78;;;17.27;71.04
70229;BME280;57617;51.988;5.854;2023-08-31T07:51:52;100535.94;;;17.25;71.00
70229;BME280;57617;51.988;5.854;2023-08-31T07:54:21;100523.34;;;17.24;71.20
70229;BME280;57617;51.988;5.854;2023-08-31T07:56:47;100536.31;;;17.18;71.25
70229;BME280;57617;51.988;5.854;2023-08-31T07:59:12;100535.72;;;17.21;71.02
70229;BME280;57617;51.988;5.854;2023-08-31T08:01:37;100538.50;;;17.16;71.15
70229;BME280;57617;51.988;5.854;2023-08-31T08:04:03;100536.66;;;17.12;70.90
70229;BME280;57617;51.988;5.854;2023-08-31T08:06:28;100544.03;;;17.11;71.38
70229;BME280;57617;51.988;5.854;2023-08-31T08:08:53;100541.03;;;17.13;71.26
70229;BME280;57617;51.988;5.854;2023-08-31T08:11:19;100547.56;;;17.17;71.30
70229;BME280;57617;51.988;5.854;2023-08-31T08:13:44;100544.50;;;17.23;71.43
70229;BME280;57617;51.988;5.854;2023-08-31T08:16:09;100543.88;;;17.26;71.49
70229;BME280;57617;51.988;5.854;2023-08-31T08:18:35;100546.59;;;17.31;71.50
70229;BME280;57617;51.988;5.854;2023-08-31T08:21:00;100540.28;;;17.31;71.48
70229;BME280;57617;51.988;5.854;2023-08-31T08:23:25;100544.34;;;17.39;71.57
70229;BME280;57617;51.988;5.854;2023-08-31T08:25:51;100542.59;;;17.48;71.82
70229;BME280;57617;51.988;5.854;2023-08-31T08:28:16;100539.44;;;17.59;71.94
70229;BME280;57617;51.988;5.854;2023-08-31T08:30:41;100545.09;;;17.67;71.45
70229;BME280;57617;51.988;5.854;2023-08-31T08:33:08;100549.41;;;17.73;71.63
70229;BME280;57617;51.988;5.854;2023-08-31T08:35:33;100552.09;;;17.78;71.47
70229;BME280;57617;51.988;5.854;2023-08-31T08:37:59;100548.47;;;17.83;71.57
70229;BME280;57617;51.988;5.854;2023-08-31T08:40:24;100547.06;;;17.86;71.60
70229;BME280;57617;51.988;5.854;2023-08-31T08:42:52;100557.31;;;17.98;71.52
70229;BME280;57617;51.988;5.854;2023-08-31T08:45:20;100562.69;;;18.08;71.59
70229;BME280;57617;51.988;5.854;2023-08-31T08:47:49;100558.22;;;18.13;71.30
70229;BME280;57617;51.988;5.854;2023-08-31T08:50:16;100560.91;;;18.17;71.63
70229;BME280;57617;51.988;5.854;2023-08-31T08:52:42;100561.13;;;18.21;71.33
70229;BME280;57617;51.988;5.854;2023-08-31T08:55:09;100562.19;;;18.25;71.44
70229;BME280;57617;51.988;5.854;2023-08-31T08:57:34;100566.78;;;18.29;71.37
70229;BME280;57617;51.988;5.854;2023-08-31T09:00:00;100571.88;;;18.41;71.72
70229;BME280;57617;51.988;5.854;2023-08-31T09:02:25;100566.50;;;18.50;71.39
70229;BME280;57617;51.988;5.854;2023-08-31T09:04:50;100567.03;;;18.52;71.24
70229;BME280;57617;51.988;5.854;2023-08-31T09:07:20;100557.88;;;18.56;71.42
70229;BME280;57617;51.988;5.854;2023-08-31T09:09:51;100568.50;;;18.63;70.96
70229;BME280;57617;51.988;5.854;2023-08-31T09:12:16;100570.44;;;18.62;71.20
70229;BME280;57617;51.988;5.854;2023-08-31T09:14:42;100558.13;;;18.73;71.26
70229;BME280;57617;51.988;5.854;2023-08-31T09:17:07;100562.06;;;18.86;71.26
70229;BME280;57617;51.988;5.854;2023-08-31T09:19:33;100564.56;;;19.01;71.16
70229;BME280;57617;51.988;5.854;2023-08-31T09:21:58;100575.00;;;19.17;70.95
70229;BME280;57617;51.988;5.854;2023-08-31T09:24:24;100563.00;;;19.27;70.98
70229;BME280;57617;51.988;5.854;2023-08-31T09:26:58;100565.56;;;19.37;70.68
70229;BME280;57617;51.988;5.854;2023-08-31T09:29:24;100571.59;;;19.39;70.14
70229;BME280;57617;51.988;5.854;2023-08-31T09:31:50;100570.97;;;19.42;70.14
70229;BME280;57617;51.988;5.854;2023-08-31T09:34:16;100574.88;;;19.54;70.07
70229;BME280;57617;51.988;5.854;2023-08-31T09:36:42;100559.56;;;19.62;70.17
70229;BME280;57617;51.988;5.854;2023-08-31T09:39:08;100566.50;;;19.73;70.26
70229;BME280;57617;51.988;5.854;2023-08-31T09:41:35;100571.50;;;19.84;70.06
70229;BME280;57617;51.988;5.854;2023-08-31T09:44:18;100562.81;;;19.91;68.56
70229;BME280;57617;51.988;5.854;2023-08-31T09:46:44;100565.88;;;20.03;69.79
70229;BME280;57617;51.988;5.854;2023-08-31T09:49:15;100561.97;;;20.04;68.96
70229;BME280;57617;51.988;5.854;2023-08-31T09:51:44;100559.97;;;20.09;68.53
70229;BME280;57617;51.988;5.854;2023-08-31T09:54:13;100562.50;;;20.06;67.75
70229;BME280;57617;51.988;5.854;2023-08-31T09:56:41;100563.09;;;20.03;68.22
70229;BME280;57617;51.988;5.854;2023-08-31T09:59:08;100556.28;;;20.00;68.05
70229;BME280;57617;51.988;5.854;2023-08-31T10:01:33;100546.19;;;19.96;67.84
70229;BME280;57617;51.988;5.854;2023-08-31T10:03:59;100552.41;;;19.88;67.88
70229;BME280;57617;51.988;5.854;2023-08-31T10:06:24;100551.28;;;19.75;68.01
70229;BME280;57617;51.988;5.854;2023-08-31T10:08:51;100559.47;;;19.67;68.40
70229;BME280;57617;51.988;5.854;2023-08-31T10:11:17;100561.00;;;19.59;68.57
70229;BME280;57617;51.988;5.854;2023-08-31T10:13:44;100560.06;;;19.64;68.87
70229;BME280;57617;51.988;5.854;2023-08-31T10:16:11;100558.13;;;19.64;68.89
70229;BME280;57617;51.988;5.854;2023-08-31T10:18:36;100558.25;;;19.59;68.98
70229;BME280;57617;51.988;5.854;2023-08-31T10:21:02;100571.72;;;19.61;68.90
70229;BME280;57617;51.988;5.854;2023-08-31T10:23:29;100572.94;;;19.55;68.88
70229;BME280;57617;51.988;5.854;2023-08-31T10:28:21;100578.13;;;19.43;69.07
70229;BME280;57617;51.988;5.854;2023-08-31T10:31:00;100574.97;;;19.63;68.96
70229;BME280;57617;51.988;5.854;2023-08-31T10:33:31;100574.88;;;19.81;69.25
70229;BME280;57617;51.988;5.854;2023-08-31T10:35:56;100565.59;;;19.91;69.10
70229;BME280;57617;51.988;5.854;2023-08-31T10:38:25;100571.56;;;20.06;68.78
70229;BME280;57617;51.988;5.854;2023-08-31T10:41:23;100552.56;;;20.32;66.28
70229;BME280;57617;51.988;5.854;2023-08-31T10:43:56;100552.09;;;20.52;66.72
70229;BME280;57617;51.988;5.854;2023-08-31T10:46:26;100549.69;;;20.59;65.63
70229;BME280;57617;51.988;5.854;2023-08-31T10:49:13;100552.97;;;20.83;62.35
70229;BME280;57617;51.988;5.854;2023-08-31T10:51:45;100550.81;;;21.02;64.10
70229;BME280;57617;51.988;5.854;2023-08-31T10:54:11;100557.09;;;21.16;64.08
70229;BME280;57617;51.988;5.854;2023-08-31T10:59:23;100561.59;;;21.34;62.70
70229;BME280;57617;51.988;5.854;2023-08-31T11:02:01;100544.91;;;21.47;59.55
70229;BME280;57617;51.988;5.854;2023-08-31T11:04:29;100548.19;;;21.58;61.98
70229;BME280;57617;51.988;5.854;2023-08-31T11:07:13;100547.78;;;21.73;58.11
70229;BME280;57617;51.988;5.854;2023-08-31T11:09:43;100546.69;;;21.82;60.44
70229;BME280;57617;51.988;5.854;2023-08-31T11:12:09;100549.16;;;21.92;59.70
70229;BME280;57617;51.988;5.854;2023-08-31T11:14:34;100545.56;;;22.00;59.23
70229;BME280;57617;51.988;5.854;2023-08-31T11:17:00;100542.50;;;22.10;59.36
70229;BME280;57617;51.988;5.854;2023-08-31T11:19:27;100545.94;;;22.16;58.75
70229;BME280;57617;51.988;5.854;2023-08-31T11:21:54;100544.81;;;22.25;58.08
70229;BME280;57617;51.988;5.854;2023-08-31T11:24:20;100555.41;;;22.32;56.70
70229;BME280;57617;51.988;5.854;2023-08-31T11:26:50;100551.66;;;22.36;55.96
70229;BME280;57617;51.988;5.854;2023-08-31T11:29:15;100557.19;;;22.36;57.13
70229;BME280;57617;51.988;5.854;2023-08-31T11:31:41;100554.56;;;22.23;57.64
70229;BME280;57617;51.988;5.854;2023-08-31T11:34:08;100554.25;;;22.16;57.22
70229;BME280;57617;51.988;5.854;2023-08-31T11:36:37;100548.72;;;22.16;57.05
70229;BME280;57617;51.988;5.854;2023-08-31T11:39:03;100551.81;;;22.23;56.94
70229;BME280;57617;51.988;5.854;2023-08-31T11:41:32;100546.09;;;22.28;55.31
70229;BME280;57617;51.988;5.854;2023-08-31T11:43:59;100550.34;;;22.42;55.49
70229;BME280;57617;51.988;5.854;2023-08-31T11:46:24;100541.44;;;22.45;54.56
70229;BME280;57617;51.988;5.854;2023-08-31T11:48:50;100541.94;;;22.56;54.46
70229;BME280;57617;51.988;5.854;2023-08-31T11:51:16;100543.84;;;22.72;53.33
70229;BME280;57617;51.988;5.854;2023-08-31T11:53:41;100545.50;;;22.82;53.17
70229;BME280;57617;51.988;5.854;2023-08-31T11:56:07;100544.97;;;22.88;52.33
70229;BME280;57617;51.988;5.854;2023-08-31T11:58:32;100540.91;;;22.94;51.34
70229;BME280;57617;51.988;5.854;2023-08-31T12:00:58;100543.16;;;23.01;50.88
70229;BME280;57617;51.988;5.854;2023-08-31T12:03:25;100544.78;;;23.10;50.27
70229;BME280;57617;51.988;5.854;2023-08-31T12:05:52;100554.25;;;23.18;50.23
70229;BME280;57617;51.988;5.854;2023-08-31T12:08:26;100547.66;;;23.31;48.99
70229;BME280;57617;51.988;5.854;2023-08-31T12:10:52;100558.91;;;23.34;49.86
70229;BME280;57617;51.988;5.854;2023-08-31T12:13:17;100550.44;;;23.31;49.21
70229;BME280;57617;51.988;5.854;2023-08-31T12:15:43;100543.91;;;23.35;49.26
70229;BME280;57617;51.988;5.854;2023-08-31T12:18:13;100547.59;;;23.48;46.75
70229;BME280;57617;51.988;5.854;2023-08-31T12:20:57;100545.13;;;23.55;46.63
70229;BME280;57617;51.988;5.854;2023-08-31T12:23:22;100550.19;;;23.53;48.49
70229;BME280;57617;51.988;5.854;2023-08-31T12:25:53;100552.16;;;23.52;47.61
70229;BME280;57617;51.988;5.854;2023-08-31T12:28:20;100541.69;;;23.58;48.87
70229;BME280;57617;51.988;5.854;2023-08-31T12:30:48;100549.50;;;23.64;48.40
70229;BME280;57617;51.988;5.854;2023-08-31T12:33:13;100554.44;;;23.59;47.53
70229;BME280;57617;51.988;5.854;2023-08-31T12:35:39;100553.59;;;23.58;47.46
70229;BME280;57617;51.988;5.854;2023-08-31T12:38:05;100554.25;;;23.64;47.37
70229;BME280;57617;51.988;5.854;2023-08-31T12:40:30;100558.25;;;23.75;46.75
70229;BME280;57617;51.988;5.854;2023-08-31T12:42:55;100560.34;;;23.78;47.32
70229;BME280;57617;51.988;5.854;2023-08-31T12:45:20;100563.41;;;23.93;46.92
70229;BME280;57617;51.988;5.854;2023-08-31T12:47:46;100568.91;;;24.02;47.43
70229;BME280;57617;51.988;5.854;2023-08-31T12:50:13;100556.72;;;23.94;47.36
70229;BME280;57617;51.988;5.854;2023-08-31T12:52:38;100564.59;;;23.84;47.36
70229;BME280;57617;51.988;5.854;2023-08-31T12:55:15;100551.22;;;23.77;46.73
70229;BME280;57617;51.988;5.854;2023-08-31T12:57:41;100559.22;;;23.79;46.58